Detroit, Michigan
Traffic Map
Current Weather Conditions
Detroit, Michigan
Overcast
Overcast
27°
Feels Like: 17°
Wind Chill: 17° Ceiling: 2300
Heat Index: 27° Visibility: 15mi
Dew Point: 19° Wind: 9mph
Humidity: 74% Direction: 10° (N)
Pressure: 30.26in Gusts: 0mph
Raw Report DataCYQG 191300Z 01008KT 15SM OVC023 M03/M07 A3026 RMK SC8 SLP254
Traffic Incident Summary
Active as of:
Severity:
Category:
InformationThere was an issue retrieving the traffic information for this location. Please try a different location or try again shortly.
Advertisements
Track Severe Weather on mobile